Time,TemperatureF,DewpointF,PressureIn,WindDirection,WindDirectionDegrees,WindSpeedMPH,WindSpeedGustMPH,Humidity,HourlyPrecipIn,Conditions,Clouds,dailyrainin,SoftwareType,DateUTC
2013-01-12 00:00:00,76.1,76.1,30.04,East,79,5.0,5.0,100,0.00,,,0.00,Wunderground v.1.15,2013-01-12 05:00:00,
2013-01-12 00:05:00,76.1,76.1,30.04,East,89,6.0,6.0,100,0.00,,,0.00,Wunderground v.1.15,2013-01-12 05:05:00,
2013-01-12 00:10:00,76.3,76.3,30.04,ENE,64,6.0,10.0,100,0.00,,,0.00,Wunderground v.1.15,2013-01-12 05:10:00,
2013-01-12 00:15:00,76.3,76.3,30.04,ESE,109,7.0,10.0,100,0.00,,,0.00,Wunderground v.1.15,2013-01-12 05:15:00,
2013-01-12 00:20:00,76.3,76.3,30.04,ESE,119,6.0,7.0,100,0.00,,,0.00,Wunderground v.1.15,2013-01-12 05:20:00,
2013-01-12 00:25:00,76.3,76.3,30.04,East,82,7.0,7.0,100,0.00,,,0.00,Wunderground v.1.15,2013-01-12 05:25:00,
2013-01-12 00:30:00,76.1,76.1,30.04,NE,52,8.0,8.0,100,0.00,,,0.00,Wunderground v.1.15,2013-01-12 05:30:00,
2013-01-12 00:40:00,76.0,76.0,30.04,ESE,117,6.0,12.0,100,0.00,,,0.00,Wunderground v.1.15,2013-01-12 05:40:00,
2013-01-12 00:45:00,76.1,76.1,30.03,ESE,102,6.0,12.0,100,0.00,,,0.00,Wunderground v.1.15,2013-01-12 05:45:00,
2013-01-12 00:55:00,76.3,76.3,30.03,East,83,9.0,13.0,100,0.00,,,0.00,Wunderground v.1.15,2013-01-12 05:55:00,
2013-01-12 01:00:00,76.1,76.1,30.03,East,92,9.0,9.0,100,0.00,,,0.00,Wunderground v.1.15,2013-01-12 06:00:00,
2013-01-12 01:05:00,76.1,76.1,30.03,ENE,65,7.0,9.0,100,0.00,,,0.00,Wunderground v.1.15,2013-01-12 06:05:00,
2013-01-12 01:15:00,76.0,76.0,30.03,ENE,76,6.0,7.0,100,0.00,,,0.00,Wunderground v.1.15,2013-01-12 06:15:00,
2013-01-12 01:20:00,76.0,76.0,30.03,East,83,7.0,7.0,100,0.00,,,0.00,Wunderground v.1.15,2013-01-12 06:20:00,
2013-01-12 01:25:00,76.1,76.1,30.03,ESE,109,8.0,8.0,100,0.00,,,0.00,Wunderground v.1.15,2013-01-12 06:25:00,
2013-01-12 01:35:00,76.1,76.1,30.03,East,93,7.0,8.0,100,0.00,,,0.00,Wunderground v.1.15,2013-01-12 06:35:00,
2013-01-12 01:40:00,76.1,76.1,30.03,ENE,61,7.0,11.0,100,0.00,,,0.00,Wunderground v.1.15,2013-01-12 06:40:00,
2013-01-12 01:45:00,76.0,76.0,30.03,ENE,68,8.0,11.0,100,0.00,,,0.00,Wunderground v.1.15,2013-01-12 06:45:00,
2013-01-12 01:50:00,76.1,76.1,30.03,SE,126,7.0,7.0,100,0.00,,,0.00,Wunderground v.1.15,2013-01-12 06:50:00,
2013-01-12 02:00:00,76.0,76.0,30.02,East,86,7.0,13.0,100,0.00,,,0.00,Wunderground v.1.15,2013-01-12 07:00:00,
2013-01-12 02:10:00,76.0,76.0,30.02,ENE,69,8.0,11.0,100,0.00,,,0.00,Wunderground v.1.15,2013-01-12 07:10:00,
2013-01-12 02:15:00,76.0,76.0,30.02,East,100,8.0,11.0,100,0.00,,,0.00,Wunderground v.1.15,2013-01-12 07:15:00,
2013-01-12 02:20:00,76.0,76.0,30.02,ENE,64,8.0,10.0,100,0.00,,,0.00,Wunderground v.1.15,2013-01-12 07:20:00,
2013-01-12 02:30:00,76.0,76.0,30.02,East,97,7.0,10.0,100,0.00,,,0.00,Wunderground v.1.15,2013-01-12 07:30:00,
2013-01-12 02:40:00,76.0,76.0,30.02,East,92,8.0,12.0,100,0.00,,,0.00,Wunderground v.1.15,2013-01-12 07:40:00,
2013-01-12 02:45:00,75.8,75.8,30.02,East,86,8.0,12.0,100,0.00,,,0.00,Wunderground v.1.15,2013-01-12 07:45:00,
2013-01-12 02:50:00,75.8,75.8,30.02,ENE,65,8.0,10.0,100,0.00,,,0.00,Wunderground v.1.15,2013-01-12 07:50:00,
2013-01-12 02:55:00,76.0,76.0,30.02,ESE,112,7.0,10.0,100,0.00,,,0.00,Wunderground v.1.15,2013-01-12 07:55:00,
2013-01-12 03:05:00,75.8,75.8,30.02,ENE,78,6.0,7.0,100,0.00,,,0.00,Wunderground v.1.15,2013-01-12 08:05:00,
2013-01-12 03:10:00,75.8,75.8,30.02,ESE,109,7.0,11.0,100,0.00,,,0.00,Wunderground v.1.15,2013-01-12 08:10:00,
2013-01-12 03:15:00,75.8,75.8,30.01,East,83,7.0,11.0,100,0.00,,,0.00,Wunderground v.1.15,2013-01-12 08:15:00,
2013-01-12 03:20:00,75.8,75.8,30.01,SE,124,7.0,11.0,100,0.00,,,0.00,Wunderground v.1.15,2013-01-12 08:20:00,
2013-01-12 03:30:00,75.8,75.8,30.01,ESE,114,8.0,8.0,100,0.00,,,0.00,Wunderground v.1.15,2013-01-12 08:30:00,
2013-01-12 03:40:00,75.8,75.8,30.01,ESE,120,7.0,7.0,100,0.00,,,0.00,Wunderground v.1.15,2013-01-12 08:40:00,
2013-01-12 03:45:00,75.6,75.6,30.01,ESE,106,7.0,7.0,100,0.00,,,0.00,Wunderground v.1.15,2013-01-12 08:45:00,
2013-01-12 03:50:00,75.8,75.8,30.01,East,96,6.0,7.0,100,0.00,,,0.00,Wunderground v.1.15,2013-01-12 08:50:00,
2013-01-12 04:00:00,75.8,75.8,30.01,ESE,112,8.0,8.0,100,0.00,,,0.00,Wunderground v.1.15,2013-01-12 09:00:00,
2013-01-12 04:05:00,75.8,75.8,30.01,East,97,7.0,8.0,100,0.00,,,0.00,Wunderground v.1.15,2013-01-12 09:05:00,
2013-01-12 04:15:00,75.6,75.6,30.01,ENE,76,7.0,11.0,100,0.00,,,0.00,Wunderground v.1.15,2013-01-12 09:15:00,
2013-01-12 04:20:00,75.6,75.6,30.01,East,93,7.0,7.0,100,0.00,,,0.00,Wunderground v.1.15,2013-01-12 09:20:00,
2013-01-12 04:30:00,75.8,75.8,30.01,ESE,117,7.0,7.0,100,0.00,,,0.00,Wunderground v.1.15,2013-01-12 09:30:00,
2013-01-12 04:35:00,75.8,75.8,30.01,ENE,76,6.0,7.0,100,0.00,,,0.00,Wunderground v.1.15,2013-01-12 09:35:00,
2013-01-12 04:40:00,75.6,75.6,30.01,ENE,73,6.0,7.0,100,0.00,,,0.00,Wunderground v.1.15,2013-01-12 09:40:00,
2013-01-12 04:45:00,75.6,75.6,30.01,ENE,72,7.0,7.0,100,0.00,,,0.00,Wunderground v.1.15,2013-01-12 09:45:00,
2013-01-12 04:50:00,75.6,75.6,30.01,East,82,7.0,7.0,100,0.00,,,0.00,Wunderground v.1.15,2013-01-12 09:50:00,
2013-01-12 04:55:00,75.8,75.8,30.01,East,89,7.0,10.0,100,0.00,,,0.00,Wunderground v.1.15,2013-01-12 09:55:00,
2013-01-12 05:00:00,75.8,75.8,30.01,ESE,110,7.0,7.0,100,0.00,,,0.00,Wunderground v.1.15,2013-01-12 10:00:00,
2013-01-12 05:05:00,75.6,75.6,30.01,ESE,109,7.0,7.0,100,0.00,,,0.00,Wunderground v.1.15,2013-01-12 10:05:00,
2013-01-12 05:10:00,75.6,75.6,30.01,ESE,103,6.0,6.0,100,0.00,,,0.00,Wunderground v.1.15,2013-01-12 10:10:00,
2013-01-12 05:15:00,75.6,75.6,30.01,East,90,5.0,6.0,100,0.00,,,0.00,Wunderground v.1.15,2013-01-12 10:15:00,
2013-01-12 05:20:00,75.6,75.6,30.01,East,90,5.0,5.0,100,0.00,,,0.00,Wunderground v.1.15,2013-01-12 10:20:00,
2013-01-12 05:25:00,75.6,75.6,30.01,East,80,5.0,6.0,100,0.00,,,0.00,Wunderground v.1.15,2013-01-12 10:25:00,
2013-01-12 05:35:00,75.6,75.6,30.01,ESE,103,6.0,6.0,100,0.00,,,0.00,Wunderground v.1.15,2013-01-12 10:35:00,
2013-01-12 05:45:00,75.6,75.6,30.01,East,100,6.0,10.0,100,0.00,,,0.00,Wunderground v.1.15,2013-01-12 10:45:00,
2013-01-12 05:55:00,75.6,75.6,30.01,East,93,7.0,7.0,100,0.00,,,0.00,Wunderground v.1.15,2013-01-12 10:55:00,
2013-01-12 06:00:00,75.6,75.6,30.01,ENE,76,5.0,5.0,100,0.00,,,0.00,Wunderground v.1.15,2013-01-12 11:00:00,
2013-01-12 06:10:00,75.6,75.6,30.01,ESE,113,5.0,6.0,100,0.00,,,0.00,Wunderground v.1.15,2013-01-12 11:10:00,
2013-01-12 06:20:00,75.6,75.6,30.02,East,96,5.0,5.0,100,0.00,,,0.00,Wunderground v.1.15,2013-01-12 11:20:00,
2013-01-12 06:25:00,75.4,75.4,30.02,ENE,62,6.0,6.0,100,0.00,,,0.00,Wunderground v.1.15,2013-01-12 11:25:00,
2013-01-12 06:30:00,75.6,75.6,30.03,East,97,6.0,6.0,100,0.00,,,0.00,Wunderground v.1.15,2013-01-12 11:30:00,
2013-01-12 06:40:00,75.6,75.6,30.03,ENE,75,6.0,8.0,100,0.00,,,0.00,Wunderground v.1.15,2013-01-12 11:40:00,
2013-01-12 06:45:00,75.8,75.8,30.03,East,89,5.0,8.0,100,0.00,,,0.00,Wunderground v.1.15,2013-01-12 11:45:00,
2013-01-12 06:55:00,75.6,75.6,30.03,ESE,104,5.0,5.0,100,0.00,,,0.00,Wunderground v.1.15,2013-01-12 11:55:00,
2013-01-12 07:05:00,75.6,75.6,30.04,East,85,5.0,5.0,100,0.00,,,0.00,Wunderground v.1.15,2013-01-12 12:05:00,
2013-01-12 07:10:00,75.6,75.6,30.04,ESE,112,5.0,11.0,100,0.00,,,0.00,Wunderground v.1.15,2013-01-12 12:10:00,
2013-01-12 07:20:00,75.8,75.8,30.04,ENE,66,6.0,7.0,100,0.00,,,0.00,Wunderground v.1.15,2013-01-12 12:20:00,
2013-01-12 07:25:00,75.8,75.8,30.04,East,96,6.0,7.0,100,0.00,,,0.00,Wunderground v.1.15,2013-01-12 12:25:00,
2013-01-12 07:30:00,75.8,75.8,30.04,ENE,78,6.0,7.0,100,0.00,,,0.00,Wunderground v.1.15,2013-01-12 12:30:00,
2013-01-12 07:40:00,75.8,75.8,30.04,ESE,106,6.0,7.0,100,0.00,,,0.00,Wunderground v.1.15,2013-01-12 12:40:00,
2013-01-12 07:45:00,75.8,75.8,30.04,ENE,65,5.0,7.0,100,0.00,,,0.00,Wunderground v.1.15,2013-01-12 12:45:00,
2013-01-12 07:55:00,75.8,75.8,30.04,ESE,120,5.0,7.0,100,0.00,,,0.00,Wunderground v.1.15,2013-01-12 12:55:00,
2013-01-12 08:00:00,75.8,75.8,30.05,ENE,68,6.0,6.0,100,0.00,,,0.00,Wunderground v.1.15,2013-01-12 13:00:00,
2013-01-12 08:10:00,76.1,76.1,30.05,ENE,73,6.0,6.0,100,0.00,,,0.00,Wunderground v.1.15,2013-01-12 13:10:00,
2013-01-12 08:20:00,76.5,76.5,30.05,ENE,72,6.0,6.0,100,0.00,,,0.00,Wunderground v.1.15,2013-01-12 13:20:00,
2013-01-12 08:30:00,76.5,76.5,30.05,East,97,6.0,9.0,100,0.00,,,0.00,Wunderground v.1.15,2013-01-12 13:30:00,
2013-01-12 08:35:00,76.7,76.7,30.05,ENE,68,5.0,9.0,100,0.00,,,0.00,Wunderground v.1.15,2013-01-12 13:35:00,
2013-01-12 08:45:00,76.8,76.8,30.05,East,86,5.0,7.0,100,0.00,,,0.00,Wunderground v.1.15,2013-01-12 13:45:00,
2013-01-12 08:55:00,77.2,77.2,30.05,ENE,76,7.0,8.0,100,0.00,,,0.00,Wunderground v.1.15,2013-01-12 13:55:00,
2013-01-12 09:05:00,77.4,77.4,30.06,East,90,6.0,10.0,100,0.00,,,0.00,Wunderground v.1.15,2013-01-12 14:05:00,
2013-01-12 09:15:00,77.4,77.4,30.06,East,90,7.0,7.0,100,0.00,,,0.00,Wunderground v.1.15,2013-01-12 14:15:00,
2013-01-12 09:20:00,77.4,77.4,30.06,ENE,75,6.0,6.0,100,0.00,,,0.00,Wunderground v.1.15,2013-01-12 14:20:00,
2013-01-12 09:30:00,77.4,77.4,30.06,East,96,7.0,7.0,100,0.00,,,0.00,Wunderground v.1.15,2013-01-12 14:30:00,
2013-01-12 09:40:00,77.6,77.6,30.06,ESE,107,7.0,7.0,100,0.00,,,0.00,Wunderground v.1.15,2013-01-12 14:40:00,
2013-01-12 09:45:00,77.6,77.6,30.06,ENE,68,7.0,7.0,100,0.00,,,0.00,Wunderground v.1.15,2013-01-12 14:45:00,
2013-01-12 09:50:00,77.2,77.2,30.06,NE,47,7.0,10.0,100,0.00,,,0.00,Wunderground v.1.15,2013-01-12 14:50:00,
2013-01-12 10:00:00,77.7,77.7,30.07,NE,47,7.0,7.0,100,0.00,,,0.00,Wunderground v.1.15,2013-01-12 15:00:00,
2013-01-12 10:05:00,77.7,77.7,30.07,ENE,61,7.0,7.0,100,0.00,,,0.00,Wunderground v.1.15,2013-01-12 15:05:00,
2013-01-12 10:10:00,77.7,77.7,30.07,East,92,6.0,6.0,100,0.00,,,0.00,Wunderground v.1.15,2013-01-12 15:10:00,
2013-01-12 10:20:00,77.9,77.9,30.07,East,97,7.0,8.0,100,0.00,,,0.00,Wunderground v.1.15,2013-01-12 15:20:00,
2013-01-12 10:25:00,77.9,77.9,30.07,ESE,110,7.0,8.0,100,0.00,,,0.00,Wunderground v.1.15,2013-01-12 15:25:00,
2013-01-12 10:30:00,78.3,78.3,30.07,ESE,116,6.0,6.0,100,0.00,,,0.00,Wunderground v.1.15,2013-01-12 15:30:00,
2013-01-12 10:35:00,78.3,78.3,30.07,ENE,75,5.0,9.0,100,0.00,,,0.00,Wunderground v.1.15,2013-01-12 15:35:00,
2013-01-12 10:40:00,78.5,78.5,30.07,East,99,5.0,5.0,100,0.00,,,0.00,Wunderground v.1.15,2013-01-12 15:40:00,
2013-01-12 10:50:00,78.3,78.3,30.06,East,80,6.0,6.0,100,0.00,,,0.00,Wunderground v.1.15,2013-01-12 15:50:00,
2013-01-12 10:55:00,78.3,78.3,30.06,ESE,106,6.0,7.0,100,0.00,,,0.00,Wunderground v.1.15,2013-01-12 15:55:00,
2013-01-12 11:05:00,78.5,78.5,30.06,ESE,102,6.0,9.0,100,0.00,,,0.00,Wunderground v.1.15,2013-01-12 16:05:00,
2013-01-12 11:10:00,78.3,78.3,30.06,East,80,6.0,6.0,100,0.00,,,0.00,Wunderground v.1.15,2013-01-12 16:10:00,
2013-01-12 11:20:00,78.5,78.5,30.05,ESE,110,7.0,7.0,100,0.00,,,0.00,Wunderground v.1.15,2013-01-12 16:20:00,
2013-01-12 11:30:00,78.8,78.8,30.05,NE,49,6.0,7.0,100,0.00,,,0.00,Wunderground v.1.15,2013-01-12 16:30:00,
2013-01-12 11:35:00,78.8,78.8,30.05,ENE,72,6.0,7.0,100,0.00,,,0.00,Wunderground v.1.15,2013-01-12 16:35:00,
2013-01-12 11:45:00,78.8,78.8,30.04,East,95,6.0,8.0,100,0.00,,,0.00,Wunderground v.1.15,2013-01-12 16:45:00,
2013-01-12 11:50:00,78.8,78.8,30.04,SE,141,6.0,6.0,100,0.00,,,0.00,Wunderground v.1.15,2013-01-12 16:50:00,
2013-01-12 12:00:00,79.2,79.2,30.03,ENE,66,5.0,5.0,100,0.00,,,0.00,Wunderground v.1.15,2013-01-12 17:00:00,
2013-01-12 12:05:00,78.8,78.8,30.03,East,99,5.0,7.0,100,0.00,,,0.00,Wunderground v.1.15,2013-01-12 17:05:00,
2013-01-12 12:15:00,78.8,78.8,30.02,ENE,66,7.0,9.0,100,0.00,,,0.00,Wunderground v.1.15,2013-01-12 17:15:00,
2013-01-12 12:25:00,78.6,78.6,30.02,ESE,103,7.0,12.0,100,0.00,,,0.00,Wunderground v.1.15,2013-01-12 17:25:00,
2013-01-12 12:30:00,78.5,78.5,30.02,ENE,68,8.0,8.0,100,0.00,,,0.00,Wunderground v.1.15,2013-01-12 17:30:00,
2013-01-12 12:35:00,78.5,78.5,30.02,East,89,8.0,12.0,100,0.00,,,0.00,Wunderground v.1.15,2013-01-12 17:35:00,
2013-01-12 12:45:00,78.6,78.6,30.01,East,86,7.0,11.0,100,0.00,,,0.00,Wunderground v.1.15,2013-01-12 17:45:00,
2013-01-12 12:55:00,78.5,78.5,30.01,East,83,7.0,9.0,100,0.00,,,0.00,Wunderground v.1.15,2013-01-12 17:55:00,
2013-01-12 13:00:00,78.1,78.1,30.00,East,90,8.0,8.0,100,0.00,,,0.00,Wunderground v.1.15,2013-01-12 18:00:00,
2013-01-12 13:05:00,78.3,78.3,30.00,ESE,112,8.0,8.0,100,0.00,,,0.00,Wunderground v.1.15,2013-01-12 18:05:00,
2013-01-12 13:15:00,78.5,78.5,30.00,East,82,8.0,8.0,100,0.00,,,0.00,Wunderground v.1.15,2013-01-12 18:15:00,
2013-01-12 13:20:00,78.6,78.6,30.00,ENE,66,6.0,6.0,100,0.00,,,0.00,Wunderground v.1.15,2013-01-12 18:20:00,
2013-01-12 13:25:00,78.8,78.8,30.00,ESE,107,6.0,8.0,100,0.00,,,0.00,Wunderground v.1.15,2013-01-12 18:25:00,
2013-01-12 13:30:00,78.6,78.6,30.00,ENE,59,7.0,8.0,100,0.00,,,0.00,Wunderground v.1.15,2013-01-12 18:30:00,
2013-01-12 13:35:00,78.5,78.5,30.00,ESE,104,8.0,8.0,100,0.00,,,0.00,Wunderground v.1.15,2013-01-12 18:35:00,
2013-01-12 13:45:00,78.6,78.6,30.00,East,80,7.0,9.0,100,0.00,,,0.00,Wunderground v.1.15,2013-01-12 18:45:00,
2013-01-12 13:50:00,78.5,78.5,30.00,ESE,102,7.0,7.0,100,0.00,,,0.00,Wunderground v.1.15,2013-01-12 18:50:00,
2013-01-12 13:55:00,78.8,78.8,30.00,ESE,109,6.0,8.0,100,0.00,,,0.00,Wunderground v.1.15,2013-01-12 18:55:00,
2013-01-12 14:00:00,78.6,78.6,29.99,ESE,109,6.0,6.0,100,0.00,,,0.00,Wunderground v.1.15,2013-01-12 19:00:00,
2013-01-12 14:05:00,78.3,78.3,29.99,ESE,110,7.0,7.0,100,0.00,,,0.00,Wunderground v.1.15,2013-01-12 19:05:00,
2013-01-12 14:15:00,78.5,78.5,29.99,East,88,7.0,8.0,100,0.00,,,0.00,Wunderground v.1.15,2013-01-12 19:15:00,
2013-01-12 14:25:00,78.3,78.3,29.99,ESE,113,8.0,8.0,100,0.00,,,0.00,Wunderground v.1.15,2013-01-12 19:25:00,
2013-01-12 14:30:00,78.3,78.3,29.99,ENE,75,9.0,9.0,100,0.00,,,0.00,Wunderground v.1.15,2013-01-12 19:30:00,
2013-01-12 14:35:00,78.6,78.6,29.99,ENE,71,7.0,9.0,100,0.00,,,0.00,Wunderground v.1.15,2013-01-12 19:35:00,
2013-01-12 14:40:00,78.3,78.3,29.99,ENE,72,6.0,13.0,100,0.00,,,0.00,Wunderground v.1.15,2013-01-12 19:40:00,
2013-01-12 14:45:00,78.3,78.3,29.98,East,85,6.0,13.0,100,0.00,,,0.00,Wunderground v.1.15,2013-01-12 19:45:00,
2013-01-12 14:55:00,78.1,78.1,29.98,ENE,76,8.0,10.0,100,0.00,,,0.00,Wunderground v.1.15,2013-01-12 19:55:00,
2013-01-12 15:00:00,78.1,78.1,29.98,ESE,116,8.0,11.0,100,0.00,,,0.00,Wunderground v.1.15,2013-01-12 20:00:00,
2013-01-12 15:05:00,78.1,78.1,29.98,ESE,103,8.0,11.0,100,0.00,,,0.00,Wunderground v.1.15,2013-01-12 20:05:00,
2013-01-12 15:15:00,77.7,77.7,29.99,East,89,8.0,13.0,100,0.00,,,0.00,Wunderground v.1.15,2013-01-12 20:15:00,
2013-01-12 15:25:00,77.9,77.9,29.99,ESE,102,6.0,8.0,100,0.00,,,0.00,Wunderground v.1.15,2013-01-12 20:25:00,
2013-01-12 15:30:00,77.9,77.9,29.99,SE,128,6.0,11.0,100,0.00,,,0.00,Wunderground v.1.15,2013-01-12 20:30:00,
2013-01-12 15:40:00,77.7,77.7,29.99,ESE,103,7.0,8.0,100,0.00,,,0.00,Wunderground v.1.15,2013-01-12 20:40:00,
2013-01-12 15:45:00,77.7,77.7,29.99,East,83,8.0,8.0,100,0.00,,,0.00,Wunderground v.1.15,2013-01-12 20:45:00,
2013-01-12 15:50:00,77.7,77.7,29.99,East,93,8.0,10.0,100,0.00,,,0.00,Wunderground v.1.15,2013-01-12 20:50:00,
2013-01-12 15:55:00,77.7,77.7,29.99,ENE,78,8.0,10.0,100,0.00,,,0.00,Wunderground v.1.15,2013-01-12 20:55:00,
2013-01-12 16:00:00,77.7,77.7,29.98,ESE,113,8.0,8.0,100,0.00,,,0.00,Wunderground v.1.15,2013-01-12 21:00:00,
2013-01-12 16:10:00,77.7,77.7,29.98,East,96,6.0,6.0,100,0.00,,,0.00,Wunderground v.1.15,2013-01-12 21:10:00,
2013-01-12 16:15:00,77.6,77.6,29.99,East,80,6.0,8.0,100,0.00,,,0.00,Wunderground v.1.15,2013-01-12 21:15:00,
2013-01-12 16:25:00,77.4,77.4,29.99,ENE,75,7.0,9.0,100,0.00,,,0.00,Wunderground v.1.15,2013-01-12 21:25:00,
2013-01-12 16:30:00,77.4,77.4,29.99,East,93,6.0,6.0,100,0.00,,,0.00,Wunderground v.1.15,2013-01-12 21:30:00,
2013-01-12 16:35:00,77.2,77.2,29.99,NE,45,7.0,7.0,100,0.00,,,0.00,Wunderground v.1.15,2013-01-12 21:35:00,
2013-01-12 16:45:00,77.2,77.2,29.99,ENE,72,6.0,10.0,100,0.00,,,0.00,Wunderground v.1.15,2013-01-12 21:45:00,
2013-01-12 16:50:00,77.2,77.2,29.99,ENE,62,6.0,6.0,100,0.00,,,0.00,Wunderground v.1.15,2013-01-12 21:50:00,
2013-01-12 17:00:00,76.7,76.7,29.99,NE,55,6.0,12.0,100,0.00,,,0.00,Wunderground v.1.15,2013-01-12 22:00:00,
2013-01-12 17:10:00,76.5,76.5,29.99,East,100,7.0,7.0,100,0.00,,,0.00,Wunderground v.1.15,2013-01-12 22:10:00,
2013-01-12 17:15:00,76.7,76.7,30.00,East,97,7.0,7.0,100,0.00,,,0.00,Wunderground v.1.15,2013-01-12 22:15:00,
2013-01-12 17:20:00,76.3,76.3,30.00,ENE,75,7.0,8.0,100,0.00,,,0.00,Wunderground v.1.15,2013-01-12 22:20:00,
2013-01-12 17:25:00,76.5,76.5,30.00,East,80,7.0,10.0,100,0.00,,,0.00,Wunderground v.1.15,2013-01-12 22:25:00,
2013-01-12 17:35:00,76.1,76.1,30.00,ENE,69,7.0,10.0,100,0.00,,,0.00,Wunderground v.1.15,2013-01-12 22:35:00,
2013-01-12 17:40:00,76.1,76.1,30.00,East,93,6.0,6.0,100,0.00,,,0.00,Wunderground v.1.15,2013-01-12 22:40:00,
2013-01-12 17:45:00,76.1,76.1,30.00,ENE,73,6.0,6.0,100,0.00,,,0.00,Wunderground v.1.15,2013-01-12 22:45:00,
2013-01-12 17:50:00,76.1,76.1,30.00,East,92,5.0,5.0,100,0.00,,,0.00,Wunderground v.1.15,2013-01-12 22:50:00,
2013-01-12 17:55:00,76.0,76.0,30.00,ESE,104,5.0,5.0,100,0.00,,,0.00,Wunderground v.1.15,2013-01-12 22:55:00,
2013-01-12 18:00:00,76.0,76.0,30.00,East,99,7.0,7.0,100,0.00,,,0.00,Wunderground v.1.15,2013-01-12 23:00:00,
2013-01-12 18:05:00,76.0,76.0,30.00,East,96,7.0,7.0,100,0.00,,,0.00,Wunderground v.1.15,2013-01-12 23:05:00,
2013-01-12 18:10:00,76.0,76.0,30.00,ENE,64,7.0,11.0,100,0.00,,,0.00,Wunderground v.1.15,2013-01-12 23:10:00,
2013-01-12 18:15:00,76.0,76.0,30.00,East,85,6.0,11.0,100,0.00,,,0.00,Wunderground v.1.15,2013-01-12 23:15:00,
2013-01-12 18:25:00,75.8,75.8,30.00,East,89,7.0,8.0,100,0.00,,,0.00,Wunderground v.1.15,2013-01-12 23:25:00,
2013-01-12 18:35:00,75.8,75.8,30.00,ENE,58,7.0,7.0,100,0.00,,,0.00,Wunderground v.1.15,2013-01-12 23:35:00,
2013-01-12 18:40:00,75.8,75.8,30.00,East,79,6.0,6.0,100,0.00,,,0.00,Wunderground v.1.15,2013-01-12 23:40:00,
2013-01-12 18:45:00,75.8,75.8,30.01,East,83,5.0,6.0,100,0.00,,,0.00,Wunderground v.1.15,2013-01-12 23:45:00,
2013-01-12 18:55:00,75.8,75.8,30.01,East,79,7.0,11.0,100,0.00,,,0.00,Wunderground v.1.15,2013-01-12 23:55:00,
2013-01-12 19:05:00,75.6,75.6,30.01,NE,49,6.0,8.0,100,0.00,,,0.00,Wunderground v.1.15,2013-01-13 00:05:00,
2013-01-12 19:10:00,75.8,75.8,30.01,NE,52,5.0,5.0,100,0.00,,,0.00,Wunderground v.1.15,2013-01-13 00:10:00,
2013-01-12 19:15:00,75.8,75.8,30.01,ENE,59,5.0,5.0,100,0.00,,,0.00,Wunderground v.1.15,2013-01-13 00:15:00,
2013-01-12 19:25:00,75.6,75.6,30.01,East,86,6.0,9.0,100,0.00,,,0.00,Wunderground v.1.15,2013-01-13 00:25:00,
2013-01-12 19:30:00,75.8,75.8,30.01,NE,40,6.0,8.0,100,0.00,,,0.00,Wunderground v.1.15,2013-01-13 00:30:00,
2013-01-12 19:35:00,75.6,75.6,30.01,ESE,120,6.0,8.0,100,0.00,,,0.00,Wunderground v.1.15,2013-01-13 00:35:00,
2013-01-12 19:40:00,75.6,75.6,30.01,East,83,6.0,7.0,100,0.00,,,0.00,Wunderground v.1.15,2013-01-13 00:40:00,
2013-01-12 19:45:00,75.6,75.6,30.01,ENE,59,5.0,7.0,100,0.00,,,0.00,Wunderground v.1.15,2013-01-13 00:45:00,
2013-01-12 19:55:00,75.6,75.6,30.01,East,80,4.0,5.0,100,0.00,,,0.00,Wunderground v.1.15,2013-01-13 00:55:00,
2013-01-12 20:05:00,75.6,75.6,30.02,ENE,62,4.0,8.0,100,0.00,,,0.00,Wunderground v.1.15,2013-01-13 01:05:00,
2013-01-12 20:10:00,75.6,75.6,30.02,ENE,65,5.0,5.0,100,0.00,,,0.00,Wunderground v.1.15,2013-01-13 01:10:00,
2013-01-12 20:20:00,75.6,75.6,30.02,NE,55,4.0,4.0,100,0.00,,,0.00,Wunderground v.1.15,2013-01-13 01:20:00,
2013-01-12 20:25:00,75.6,75.6,30.02,ENE,72,4.0,4.0,100,0.00,,,0.00,Wunderground v.1.15,2013-01-13 01:25:00,
2013-01-12 20:30:00,75.6,75.6,30.02,ENE,72,4.0,6.0,100,0.00,,,0.00,Wunderground v.1.15,2013-01-13 01:30:00,
2013-01-12 20:35:00,75.6,75.6,30.02,ENE,66,4.0,6.0,100,0.00,,,0.00,Wunderground v.1.15,2013-01-13 01:35:00,
2013-01-12 20:40:00,75.6,75.6,30.02,ENE,72,3.0,6.0,100,0.00,,,0.00,Wunderground v.1.15,2013-01-13 01:40:00,
2013-01-12 20:45:00,75.6,75.6,30.02,ENE,73,3.0,6.0,100,0.00,,,0.00,Wunderground v.1.15,2013-01-13 01:45:00,
2013-01-12 20:50:00,75.6,75.6,30.02,ENE,65,4.0,4.0,100,0.00,,,0.00,Wunderground v.1.15,2013-01-13 01:50:00,
2013-01-12 20:55:00,75.6,75.6,30.02,ENE,65,5.0,5.0,100,0.00,,,0.00,Wunderground v.1.15,2013-01-13 01:55:00,
2013-01-12 21:05:00,75.6,75.6,30.02,ENE,62,3.0,4.0,100,0.00,,,0.00,Wunderground v.1.15,2013-01-13 02:05:00,
2013-01-12 21:10:00,75.4,75.4,30.02,ENE,62,4.0,6.0,100,0.00,,,0.00,Wunderground v.1.15,2013-01-13 02:10:00,
2013-01-12 21:15:00,75.4,75.4,30.01,ENE,73,5.0,8.0,100,0.00,,,0.00,Wunderground v.1.15,2013-01-13 02:15:00,
2013-01-12 21:25:00,75.6,75.6,30.01,ENE,62,5.0,8.0,100,0.00,,,0.00,Wunderground v.1.15,2013-01-13 02:25:00,
2013-01-12 21:35:00,75.6,75.6,30.01,ENE,65,5.0,6.0,100,0.00,,,0.00,Wunderground v.1.15,2013-01-13 02:35:00,
2013-01-12 21:40:00,75.6,75.6,30.01,East,95,4.0,4.0,100,0.00,,,0.00,Wunderground v.1.15,2013-01-13 02:40:00,
2013-01-12 21:50:00,75.6,75.6,30.01,ENE,64,5.0,5.0,100,0.00,,,0.00,Wunderground v.1.15,2013-01-13 02:50:00,
2013-01-12 21:55:00,75.6,75.6,30.01,East,86,4.0,5.0,100,0.00,,,0.00,Wunderground v.1.15,2013-01-13 02:55:00,
2013-01-12 22:05:00,75.6,75.6,30.01,NE,42,4.0,7.0,100,0.00,,,0.00,Wunderground v.1.15,2013-01-13 03:05:00,
2013-01-12 22:10:00,75.6,75.6,30.01,ENE,75,4.0,5.0,100,0.00,,,0.00,Wunderground v.1.15,2013-01-13 03:10:00,
2013-01-12 22:20:00,75.6,75.6,30.01,ENE,66,6.0,7.0,100,0.00,,,0.00,Wunderground v.1.15,2013-01-13 03:20:00,
2013-01-12 22:25:00,75.6,75.6,30.01,ENE,64,6.0,7.0,100,0.00,,,0.00,Wunderground v.1.15,2013-01-13 03:25:00,
2013-01-12 22:30:00,75.6,75.6,30.01,ENE,65,5.0,5.0,100,0.00,,,0.00,Wunderground v.1.15,2013-01-13 03:30:00,
2013-01-12 22:40:00,75.8,75.8,30.01,NE,52,6.0,6.0,100,0.00,,,0.00,Wunderground v.1.15,2013-01-13 03:40:00,
2013-01-12 22:45:00,75.8,75.8,30.00,ENE,62,8.0,10.0,100,0.00,,,0.00,Wunderground v.1.15,2013-01-13 03:45:00,
2013-01-12 22:50:00,75.8,75.8,30.00,ENE,62,8.0,8.0,100,0.00,,,0.00,Wunderground v.1.15,2013-01-13 03:50:00,
2013-01-12 22:55:00,75.8,75.8,30.00,ENE,64,8.0,8.0,100,0.00,,,0.00,Wunderground v.1.15,2013-01-13 03:55:00,
2013-01-12 23:00:00,75.8,75.8,30.00,ENE,61,6.0,6.0,100,0.00,,,0.00,Wunderground v.1.15,2013-01-13 04:00:00,
2013-01-12 23:05:00,75.8,75.8,30.00,ENE,71,6.0,6.0,100,0.00,,,0.00,Wunderground v.1.15,2013-01-13 04:05:00,
2013-01-12 23:10:00,75.8,75.8,30.00,East,80,6.0,6.0,100,0.00,,,0.00,Wunderground v.1.15,2013-01-13 04:10:00,
2013-01-12 23:15:00,75.8,75.8,30.00,ENE,64,7.0,7.0,100,0.00,,,0.00,Wunderground v.1.15,2013-01-13 04:15:00,
2013-01-12 23:20:00,75.8,75.8,30.00,East,95,7.0,7.0,100,0.00,,,0.00,Wunderground v.1.15,2013-01-13 04:20:00,
2013-01-12 23:25:00,75.8,75.8,30.00,ENE,68,7.0,8.0,100,0.00,,,0.00,Wunderground v.1.15,2013-01-13 04:25:00,
2013-01-12 23:35:00,76.0,76.0,29.99,NE,52,8.0,8.0,100,0.00,,,0.00,Wunderground v.1.15,2013-01-13 04:35:00,
2013-01-12 23:40:00,76.0,76.0,29.99,East,82,8.0,8.0,100,0.00,,,0.00,Wunderground v.1.15,2013-01-13 04:40:00,
2013-01-12 23:45:00,76.0,76.0,29.99,East,93,9.0,9.0,100,0.00,,,0.00,Wunderground v.1.15,2013-01-13 04:45:00,
2013-01-12 23:50:00,76.0,76.0,29.99,NE,54,9.0,11.0,100,0.00,,,0.00,Wunderground v.1.15,2013-01-13 04:50:00,
2013-01-12 23:55:00,76.0,76.0,29.99,ESE,106,8.0,11.0,100,0.00,,,0.00,Wunderground v.1.15,2013-01-13 04:55:00,